Time;durP1;ratioP1;P1;durP2;ratioP2;P2;SDS_P1;SDS_P2;PMS_P1;PMS_P2;Temp;Humidity;BMP_temperature;BMP_pressure;BME280_temperature;BME280_humidity;BME280_pressure;Samples;Min_cycle;Max_cycle;Signal;HPM_P1;HPM_P2
2022/09/04 00:02:32;;;;;;;2.93;2.00;;;19.00;99.90;;;;;;7388911;19;20974;-57
2022/09/04 00:05:08;;;;;;;3.10;2.13;;;19.10;99.90;;;;;;7391732;19;20703;-57
2022/09/04 00:07:44;;;;;;;2.63;2.10;;;19.10;99.90;;;;;;7390254;19;20375;-57
2022/09/04 00:10:23;;;;;;;3.30;1.97;;;19.10;99.90;;;;;;7390904;19;20750;-57
2022/09/04 00:12:59;;;;;;;2.93;2.30;;;19.00;99.90;;;;;;7390512;19;21056;-57
2022/09/04 00:15:35;;;;;;;2.40;2.10;;;19.00;99.90;;;;;;7390030;19;20420;-57
2022/09/04 00:18:10;;;;;;;3.40;1.83;;;18.90;99.90;;;;;;7391187;19;20481;-58
2022/09/04 00:20:44;;;;;;;3.03;2.13;;;18.90;99.90;;;;;;7390447;19;20380;-49
2022/09/04 00:23:19;;;;;;;3.90;2.90;;;19.00;99.90;;;;;;7388776;19;20390;-49
2022/09/04 00:25:59;;;;;;;2.17;1.90;;;19.00;99.90;;;;;;7387622;19;20401;-49
2022/09/04 00:28:36;;;;;;;7.67;2.47;;;18.90;99.90;;;;;;7390519;19;20372;-49
2022/09/04 00:31:19;;;;;;;2.67;2.20;;;18.90;99.90;;;;;;7389663;19;20400;-49
2022/09/04 00:33:54;;;;;;;2.07;1.83;;;18.90;99.90;;;;;;7390122;19;20906;-49
2022/09/04 00:36:28;;;;;;;2.60;1.97;;;18.70;99.90;;;;;;7389409;19;20819;-49
2022/09/04 00:39:02;;;;;;;2.77;2.47;;;18.70;99.90;;;;;;7388949;19;20384;-49
2022/09/04 00:41:47;;;;;;;2.60;2.30;;;18.70;99.90;;;;;;7389732;19;20444;-49
2022/09/04 00:44:37;;;;;;;2.23;2.03;;;18.60;99.90;;;;;;7390174;19;20377;-49
2022/09/04 00:47:37;;;;;;;4.13;2.50;;;18.70;99.90;;;;;;7387532;19;20381;-49
2022/09/04 00:50:39;;;;;;;3.93;2.27;;;18.80;99.90;;;;;;7389622;19;20423;-49
2022/09/04 00:53:24;;;;;;;2.80;2.33;;;18.90;99.90;;;;;;7388793;19;20383;-49
2022/09/04 00:56:17;;;;;;;2.77;2.47;;;18.80;99.90;;;;;;7388901;19;20376;-49
2022/09/04 00:59:05;;;;;;;2.73;2.27;;;18.70;99.90;;;;;;7391231;19;20365;-49
2022/09/04 01:01:34;;;;;;;2.97;2.27;;;18.60;99.90;;;;;;7386029;19;20432;-49
2022/09/04 01:04:32;;;;;;;3.80;2.97;;;18.60;99.90;;;;;;7389952;19;20423;-48
2022/09/04 01:07:32;;;;;;;2.90;2.50;;;18.40;99.90;;;;;;7385950;19;20444;-49
2022/09/04 01:10:17;;;;;;;6.00;2.57;;;18.20;99.90;;;;;;7388598;19;20387;-48
2022/09/04 01:12:54;;;;;;;7.80;2.97;;;18.20;99.90;;;;;;7387162;19;20785;-49
2022/09/04 01:15:33;;;;;;;3.50;2.30;;;18.30;99.90;;;;;;7388274;19;20380;-49
2022/09/04 01:18:09;;;;;;;3.67;2.70;;;18.30;99.90;;;;;;7388742;19;20420;-48
2022/09/04 01:20:54;;;;;;;2.60;2.40;;;18.30;99.90;;;;;;7388047;19;20427;-48
2022/09/04 01:23:38;;;;;;;3.20;1.93;;;18.20;99.90;;;;;;7388403;19;20379;-49
2022/09/04 01:26:17;;;;;;;4.33;2.40;;;18.30;99.90;;;;;;7387377;19;20372;-49
2022/09/04 01:29:00;;;;;;;3.20;2.70;;;18.50;99.90;;;;;;7389449;19;20380;-48
2022/09/04 01:31:40;;;;;;;4.07;2.77;;;18.50;99.90;;;;;;7387604;19;20479;-48
2022/09/04 01:34:27;;;;;;;3.07;2.77;;;18.40;99.90;;;;;;7388277;19;20372;-49
2022/09/04 01:37:05;;;;;;;3.90;3.10;;;18.40;99.90;;;;;;7387741;19;20381;-48
2022/09/04 01:39:38;;;;;;;3.67;3.27;;;18.40;99.90;;;;;;7386535;19;20379;-48
2022/09/04 01:42:17;;;;;;;3.20;2.57;;;18.60;99.90;;;;;;7387524;19;20493;-49
2022/09/04 01:44:47;;;;;;;6.03;3.33;;;18.70;99.90;;;;;;7387362;19;20435;-49
2022/09/04 01:47:22;;;;;;;3.33;3.03;;;18.60;99.90;;;;;;7385616;19;20388;-49
2022/09/04 01:49:58;;;;;;;4.37;3.17;;;18.50;99.90;;;;;;7386148;19;20478;-48
2022/09/04 01:52:46;;;;;;;3.60;3.20;;;18.30;99.90;;;;;;7386102;19;20371;-48
2022/09/04 01:55:26;;;;;;;4.30;3.83;;;18.20;99.90;;;;;;7384811;19;20391;-48
2022/09/04 01:58:17;;;;;;;4.30;3.40;;;18.10;99.90;;;;;;7386148;19;20375;-48
2022/09/04 02:00:57;;;;;;;5.63;3.60;;;18.00;99.90;;;;;;7383897;19;20438;-49
2022/09/04 02:03:32;;;;;;;3.80;3.10;;;18.00;99.90;;;;;;7387757;19;20379;-48
2022/09/04 02:06:10;;;;;;;4.63;3.50;;;18.00;99.90;;;;;;7384911;19;20386;-48
2022/09/04 02:09:00;;;;;;;4.47;3.40;;;18.20;99.90;;;;;;7386570;19;20939;-48
2022/09/04 02:11:31;;;;;;;4.50;3.47;;;18.20;99.90;;;;;;7387168;19;20898;-48
2022/09/04 02:14:16;;;;;;;4.00;3.60;;;18.10;99.90;;;;;;7386911;19;20917;-48
2022/09/04 02:16:59;;;;;;;3.60;3.03;;;18.10;99.90;;;;;;7385599;19;20379;-48
2022/09/04 02:19:56;;;;;;;6.57;3.03;;;18.20;99.90;;;;;;7386061;19;20365;-49
2022/09/04 02:22:35;;;;;;;3.43;2.70;;;18.20;99.90;;;;;;7383993;19;20404;-56
2022/09/04 02:25:12;;;;;;;3.47;2.87;;;18.20;99.90;;;;;;7385353;19;20749;-57
2022/09/04 02:27:50;;;;;;;4.67;3.40;;;18.30;99.90;;;;;;7382063;19;20908;-57
2022/09/04 02:30:22;;;;;;;4.63;3.70;;;18.30;99.90;;;;;;7385217;19;20918;-57
2022/09/04 02:33:02;;;;;;;4.10;2.90;;;18.30;99.90;;;;;;7381081;19;20376;-57
2022/09/04 02:35:40;;;;;;;4.03;3.50;;;18.20;99.90;;;;;;7383569;19;20417;-57
2022/09/04 02:38:21;;;;;;;7.23;3.90;;;18.00;99.90;;;;;;7386105;19;20372;-55
2022/09/04 02:40:54;;;;;;;7.10;3.70;;;17.90;99.90;;;;;;7385580;19;20406;-55
2022/09/04 02:43:51;;;;;;;6.27;3.17;;;17.70;99.90;;;;;;7386200;19;20376;-55
2022/09/04 02:46:30;;;;;;;3.63;3.30;;;17.60;99.90;;;;;;7383854;19;20453;-55
2022/09/04 02:49:12;;;;;;;4.03;3.63;;;17.40;99.90;;;;;;7385030;19;20431;-57
2022/09/04 02:52:05;;;;;;;6.57;3.20;;;17.50;99.90;;;;;;7385113;19;20376;-55
2022/09/04 02:54:47;;;;;;;3.67;2.73;;;17.50;99.90;;;;;;7385791;19;20376;-55
2022/09/04 02:57:29;;;;;;;4.90;3.07;;;17.50;99.90;;;;;;7383946;19;20937;-55
2022/09/04 03:00:07;;;;;;;7.37;2.80;;;17.60;99.90;;;;;;7384921;19;20738;-55
2022/09/04 03:02:46;;;;;;;3.80;2.80;;;17.60;99.90;;;;;;7383421;19;20379;-55
2022/09/04 03:05:21;;;;;;;3.77;3.10;;;17.60;99.90;;;;;;7383715;19;20761;-55
2022/09/04 03:08:00;;;;;;;3.50;2.80;;;17.60;99.90;;;;;;7383441;19;20395;-55
2022/09/04 03:10:36;;;;;;;7.40;3.30;;;17.60;99.90;;;;;;7385247;19;20379;-56
2022/09/04 03:13:13;;;;;;;5.00;3.77;;;17.50;99.90;;;;;;7384839;19;20379;-56
2022/09/04 03:15:48;;;;;;;4.30;3.20;;;17.50;99.90;;;;;;7383670;19;20371;-55
2022/09/04 03:18:25;;;;;;;4.43;4.03;;;17.50;99.90;;;;;;7384616;19;20368;-55
2022/09/04 03:21:00;;;;;;;3.53;3.23;;;17.50;99.90;;;;;;7384301;19;20387;-55
2022/09/04 03:23:41;;;;;;;3.20;2.90;;;17.40;99.90;;;;;;7385174;19;20410;-55
2022/09/04 03:26:23;;;;;;;4.50;3.73;;;17.50;99.90;;;;;;7385095;19;20383;-56
2022/09/04 03:29:14;;;;;;;3.87;2.87;;;17.60;99.90;;;;;;7384857;19;20364;-55
2022/09/04 03:31:52;;;;;;;6.20;3.30;;;17.70;99.90;;;;;;7382500;19;20380;-55
2022/09/04 03:34:34;;;;;;;3.57;3.27;;;17.80;99.90;;;;;;7384853;19;21109;-56
2022/09/04 03:37:20;;;;;;;3.90;3.40;;;17.90;99.90;;;;;;7383674;19;20416;-55
2022/09/04 03:40:04;;;;;;;6.20;3.20;;;18.00;99.90;;;;;;7383630;19;20395;-55
2022/09/04 03:42:46;;;;;;;3.03;2.63;;;17.90;99.90;;;;;;7384562;19;20938;-56
2022/09/04 03:45:26;;;;;;;3.70;3.20;;;18.00;99.90;;;;;;7384922;19;20708;-56
2022/09/04 03:48:14;;;;;;;3.53;3.03;;;17.90;99.90;;;;;;7382346;19;20934;-55
2022/09/04 03:50:53;;;;;;;3.27;2.90;;;17.90;99.90;;;;;;7383325;19;21182;-56
2022/09/04 03:53:32;;;;;;;4.90;3.20;;;17.80;99.90;;;;;;7383761;19;20415;-56
2022/09/04 03:56:33;;;;;;;7.80;3.00;;;17.80;99.90;;;;;;7381440;19;20436;-56
2022/09/04 03:59:05;;;;;;;3.60;3.10;;;17.90;99.90;;;;;;7384494;19;20383;-56
2022/09/04 04:01:51;;;;;;;3.77;3.30;;;17.80;99.90;;;;;;7381220;19;20439;-48
2022/09/04 04:04:59;;;;;;;3.07;2.60;;;17.70;99.90;;;;;;7383881;19;20371;-48
2022/09/04 04:07:46;;;;;;;4.30;3.07;;;17.60;99.90;;;;;;7378634;19;20957;-48
2022/09/04 04:10:32;;;;;;;5.73;2.63;;;17.60;99.90;;;;;;7383056;19;20379;-47
2022/09/04 04:13:39;;;;;;;3.90;3.27;;;17.50;99.90;;;;;;7384138;19;20383;-48
2022/09/04 04:16:24;;;;;;;5.37;3.20;;;17.60;99.90;;;;;;7389228;19;20420;-48
2022/09/04 04:19:17;;;;;;;2.90;2.60;;;17.60;99.90;;;;;;7390804;19;20380;-47
2022/09/04 04:21:59;;;;;;;4.10;2.60;;;17.60;99.90;;;;;;7389938;19;20958;-48
2022/09/04 04:24:56;;;;;;;5.43;2.90;;;17.60;99.90;;;;;;7390217;19;20364;-48
2022/09/04 04:27:37;;;;;;;4.73;3.47;;;17.50;99.90;;;;;;7386780;19;20380;-48
2022/09/04 04:30:11;;;;;;;4.40;3.30;;;17.40;99.90;;;;;;7388738;19;20383;-55
2022/09/04 04:33:06;;;;;;;3.03;2.73;;;17.30;99.90;;;;;;7390252;19;20707;-56
2022/09/04 04:35:46;;;;;;;3.20;2.90;;;17.30;99.90;;;;;;7387783;19;20383;-56
2022/09/04 04:38:30;;;;;;;3.80;3.43;;;17.40;99.90;;;;;;7389482;19;20459;-57
2022/09/04 04:41:25;;;;;;;4.17;3.00;;;17.40;99.90;;;;;;7389431;19;20772;-56
2022/09/04 04:44:12;;;;;;;3.97;3.23;;;17.50;99.90;;;;;;7388062;19;20384;-56
2022/09/04 04:46:53;;;;;;;2.77;2.57;;;17.50;99.90;;;;;;7389473;19;20894;-55
2022/09/04 04:49:43;;;;;;;3.50;3.00;;;17.40;99.90;;;;;;7390439;19;20395;-55
2022/09/04 04:52:40;;;;;;;3.30;3.00;;;17.30;99.90;;;;;;7390058;19;20387;-55
2022/09/04 04:55:20;;;;;;;3.40;2.47;;;17.40;99.90;;;;;;7389052;19;20379;-56
2022/09/04 04:58:20;;;;;;;4.83;3.33;;;17.40;99.90;;;;;;7389202;19;20727;-56
2022/09/04 05:01:02;;;;;;;5.60;3.77;;;17.40;99.90;;;;;;7387105;19;20432;-56
2022/09/04 05:03:44;;;;;;;4.60;3.40;;;17.30;99.90;;;;;;7388762;19;20380;-56
2022/09/04 05:06:23;;;;;;;4.10;3.70;;;17.50;99.90;;;;;;7385064;19;20384;-56
2022/09/04 05:08:59;;;;;;;5.70;3.67;;;17.60;99.90;;;;;;7386406;19;20386;-56
2022/09/04 05:11:36;;;;;;;6.27;4.20;;;17.70;99.90;;;;;;7389394;19;20473;-56
2022/09/04 05:14:20;;;;;;;4.17;3.53;;;17.70;99.90;;;;;;7388492;19;20372;-56
2022/09/04 05:16:56;;;;;;;5.83;3.60;;;17.70;99.90;;;;;;7386085;19;20376;-56
2022/09/04 05:19:32;;;;;;;6.27;4.50;;;17.60;99.90;;;;;;7386312;19;21007;-56
2022/09/04 05:22:10;;;;;;;6.20;4.60;;;17.50;99.90;;;;;;7388083;19;20966;-56
2022/09/04 05:24:49;;;;;;;8.13;5.10;;;17.50;99.90;;;;;;7385227;19;20469;-56
2022/09/04 05:27:52;;;;;;;6.90;4.43;;;17.30;99.90;;;;;;7387787;19;20372;-56
2022/09/04 05:30:33;;;;;;;5.20;4.07;;;17.30;99.90;;;;;;7387583;19;20380;-56
2022/09/04 05:33:13;;;;;;;7.60;4.10;;;17.40;99.90;;;;;;7387785;19;20384;-56
2022/09/04 05:35:48;;;;;;;5.00;3.10;;;17.40;99.90;;;;;;7387625;19;20383;-56
2022/09/04 05:38:25;;;;;;;3.93;3.53;;;17.30;99.90;;;;;;7386084;19;20719;-56
2022/09/04 05:41:15;;;;;;;4.20;3.43;;;17.30;99.90;;;;;;7387885;19;20380;-56
2022/09/04 05:44:00;;;;;;;4.13;3.73;;;17.40;99.90;;;;;;7387783;19;20373;-56
2022/09/04 05:46:47;;;;;;;4.13;3.40;;;17.50;99.90;;;;;;7386852;19;20910;-56
2022/09/04 05:49:28;;;;;;;6.23;3.60;;;17.70;99.90;;;;;;7387718;19;21009;-56
2022/09/04 05:52:19;;;;;;;4.40;4.00;;;17.70;99.90;;;;;;7387483;19;20376;-56
2022/09/04 05:55:06;;;;;;;4.97;3.63;;;17.70;99.90;;;;;;7387559;19;20373;-56
2022/09/04 05:57:47;;;;;;;3.80;3.37;;;17.70;99.90;;;;;;7386088;19;21016;-56
2022/09/04 06:00:18;;;;;;;7.73;3.23;;;17.70;99.90;;;;;;7385362;19;20374;-56
2022/09/04 06:03:17;;;;;;;5.17;3.67;;;17.70;99.90;;;;;;7386275;19;20981;-57
2022/09/04 06:05:59;;;;;;;3.50;3.20;;;17.90;99.90;;;;;;7384833;19;20926;-56
2022/09/04 06:08:46;;;;;;;3.50;3.20;;;18.00;99.90;;;;;;7385313;19;20440;-56
2022/09/04 06:11:50;;;;;;;3.90;3.50;;;18.00;99.90;;;;;;7385822;19;20384;-48
2022/09/04 06:14:36;;;;;;;3.80;3.50;;;18.10;99.90;;;;;;7385585;19;20402;-48
2022/09/04 06:17:27;;;;;;;4.03;3.63;;;18.10;99.90;;;;;;7386215;19;20371;-48
2022/09/04 06:20:26;;;;;;;4.67;3.87;;;18.20;99.90;;;;;;7386459;19;20372;-48
2022/09/04 06:23:20;;;;;;;5.77;4.00;;;18.30;99.90;;;;;;7386109;19;20440;-48
2022/09/04 06:26:17;;;;;;;3.90;3.33;;;18.40;99.90;;;;;;7386613;19;20379;-48
2022/09/04 06:29:16;;;;;;;5.13;4.20;;;18.50;99.90;;;;;;7385205;19;20436;-48
2022/09/04 06:32:06;;;;;;;3.93;3.60;;;18.40;99.90;;;;;;7386047;19;20957;-48
2022/09/04 06:35:14;;;;;;;6.57;4.43;;;18.00;99.90;;;;;;7384518;19;20380;-48
2022/09/04 06:37:56;;;;;;;4.10;3.70;;;18.30;99.90;;;;;;7383004;19;20687;-48
2022/09/04 06:40:43;;;;;;;5.23;3.67;;;18.50;99.90;;;;;;7384215;19;20382;-48
2022/09/04 06:43:23;;;;;;;4.13;3.73;;;18.60;99.90;;;;;;7385118;19;20410;-48
2022/09/04 06:46:05;;;;;;;4.50;3.63;;;18.70;99.90;;;;;;7384601;19;20401;-48
2022/09/04 06:48:53;;;;;;;3.70;3.23;;;18.80;99.90;;;;;;7384339;19;20380;-48
2022/09/04 06:51:38;;;;;;;4.13;3.17;;;19.20;99.90;;;;;;7384848;19;20625;-57
2022/09/04 06:54:21;;;;;;;5.70;3.20;;;19.40;99.90;;;;;;7383133;19;20766;-57
2022/09/04 06:57:08;;;;;;;2.63;2.43;;;19.50;99.90;;;;;;7383777;19;20931;-57
2022/09/04 07:00:02;;;;;;;6.07;3.87;;;19.60;99.90;;;;;;7386059;19;20380;-57
2022/09/04 07:02:49;;;;;;;4.50;3.50;;;19.70;99.90;;;;;;7384338;19;20906;-57
2022/09/04 07:05:25;;;;;;;4.30;3.90;;;19.80;99.90;;;;;;7383805;19;20376;-57
2022/09/04 07:08:09;;;;;;;3.60;3.30;;;20.10;99.90;;;;;;7383703;19;20382;-57
2022/09/04 07:10:48;;;;;;;9.83;3.13;;;20.10;99.90;;;;;;7383151;19;20372;-57
2022/09/04 07:13:59;;;;;;;3.57;3.27;;;20.30;99.90;;;;;;7381777;19;20371;-57
2022/09/04 07:16:43;;;;;;;3.33;3.03;;;20.60;99.90;;;;;;7382633;19;20898;-57
2022/09/04 07:19:26;;;;;;;3.13;2.83;;;20.80;99.90;;;;;;7384018;19;20383;-57
2022/09/04 07:22:15;;;;;;;4.40;3.33;;;21.00;99.90;;;;;;7381869;19;20369;-57
2022/09/04 07:24:58;;;;;;;3.40;3.10;;;21.10;99.90;;;;;;7383844;19;20473;-57
2022/09/04 07:27:44;;;;;;;3.40;3.10;;;21.30;99.90;;;;;;7383999;19;20384;-57
2022/09/04 07:30:16;;;;;;;7.10;4.00;;;21.50;99.90;;;;;;7383220;19;20376;-57
2022/09/04 07:32:55;;;;;;;3.50;3.20;;;21.80;99.90;;;;;;7383641;19;20372;-57
2022/09/04 07:35:32;;;;;;;4.13;3.10;;;21.90;99.90;;;;;;7381469;19;20387;-57
2022/09/04 07:38:10;;;;;;;2.73;2.50;;;22.20;99.90;;;;;;7382146;19;20762;-57
2022/09/04 07:40:43;;;;;;;3.10;2.50;;;22.40;99.90;;;;;;7384413;19;20763;-57
2022/09/04 07:43:22;;;;;;;3.27;2.77;;;22.60;99.90;;;;;;7382467;19;20383;-57
2022/09/04 07:46:04;;;;;;;2.70;2.43;;;22.70;99.90;;;;;;7382043;19;20400;-58
2022/09/04 07:48:38;;;;;;;3.70;3.10;;;22.90;99.90;;;;;;7385456;19;20380;-57
2022/09/04 07:51:12;;;;;;;3.80;2.67;;;23.00;99.90;;;;;;7390813;19;20428;-57
2022/09/04 07:54:18;;;;;;;3.20;2.30;;;23.10;99.90;;;;;;7390815;19;20447;-57
2022/09/04 07:57:15;;;;;;;3.63;2.80;;;23.50;99.90;;;;;;7389685;19;20419;-57
2022/09/04 08:00:03;;;;;;;2.67;2.30;;;23.80;99.90;;;;;;7391608;19;20455;-57
2022/09/04 08:03:16;;;;;;;3.00;2.00;;;23.70;99.80;;;;;;7390437;19;20384;-58
2022/09/04 08:05:51;;;;;;;2.40;2.00;;;23.70;96.70;;;;;;7387078;19;20435;-58
2022/09/04 08:09:05;;;;;;;2.40;2.20;;;23.90;99.90;;;;;;7389937;19;21649;-58
2022/09/04 08:12:03;;;;;;;2.00;1.67;;;24.40;92.80;;;;;;7389981;19;20372;-56
2022/09/04 08:14:56;;;;;;;2.10;1.90;;;24.50;95.50;;;;;;7389940;19;20784;-56
2022/09/04 08:17:41;;;;;;;2.73;2.50;;;24.60;94.80;;;;;;7388842;19;20400;-56
2022/09/04 08:20:27;;;;;;;3.30;2.50;;;24.50;94.20;;;;;;7388302;19;20424;-59
2022/09/04 08:23:08;;;;;;;2.10;1.90;;;24.40;95.50;;;;;;7388544;19;20405;-59
2022/09/04 08:25:56;;;;;;;2.40;2.13;;;24.50;93.70;;;;;;7388525;19;20380;-57
2022/09/04 08:28:55;;;;;;;2.10;1.87;;;24.60;92.10;;;;;;7388741;19;20380;-56
2022/09/04 08:31:33;;;;;;;1.80;1.70;;;24.70;94.60;;;;;;7391018;19;20894;-57
2022/09/04 08:34:27;;;;;;;4.57;2.07;;;24.90;93.30;;;;;;7390336;19;20387;-57
2022/09/04 08:37:08;;;;;;;6.10;1.97;;;25.30;89.70;;;;;;7389690;19;20404;-57
2022/09/04 08:39:46;;;;;;;3.03;1.60;;;25.70;83.50;;;;;;7389445;19;20383;-57
2022/09/04 08:42:46;;;;;;;2.00;1.67;;;26.10;86.20;;;;;;7390532;19;20472;-57
2022/09/04 08:45:49;;;;;;;2.63;1.60;;;26.50;84.50;;;;;;7387886;19;20372;-57
2022/09/04 08:49:09;;;;;;;1.83;1.40;;;26.90;73.00;;;;;;7386453;19;20376;-57
2022/09/04 08:52:01;;;;;;;2.90;1.60;;;26.90;72.60;;;;;;7389219;19;20364;-48
2022/09/04 08:55:04;;;;;;;2.50;2.07;;;27.00;70.10;;;;;;7386427;19;20922;-48
2022/09/04 08:58:00;;;;;;;3.97;2.27;;;27.20;71.20;;;;;;7387779;19;20420;-48
2022/09/04 09:00:45;;;;;;;1.93;1.60;;;27.40;69.80;;;;;;7386348;19;20869;-48
2022/09/04 09:03:47;;;;;;;1.40;1.30;;;27.80;69.30;;;;;;7390852;19;20399;-48
2022/09/04 09:06:44;;;;;;;2.27;1.60;;;28.10;65.20;;;;;;7385969;19;20395;-48
2022/09/04 09:09:46;;;;;;;1.83;1.73;;;28.40;61.90;;;;;;7385310;19;20419;-48
2022/09/04 09:12:52;;;;;;;2.97;1.90;;;28.60;65.10;;;;;;7387107;19;20444;-48
2022/09/04 09:15:54;;;;;;;3.10;2.10;;;28.90;62.10;;;;;;7389072;19;20383;-48
2022/09/04 09:18:40;;;;;;;2.30;1.60;;;29.20;61.60;;;;;;7386245;19;20453;-48
2022/09/04 09:21:20;;;;;;;2.00;1.63;;;29.70;59.70;;;;;;7386458;19;20388;-49
2022/09/04 09:24:33;;;;;;;2.37;2.17;;;30.00;58.90;;;;;;7389496;19;20727;-49
2022/09/04 09:27:40;;;;;;;2.03;1.83;;;29.70;57.40;;;;;;7388427;19;20389;-49
2022/09/04 09:30:18;;;;;;;2.43;2.23;;;30.00;58.20;;;;;;7386299;19;20391;-49
2022/09/04 09:33:40;;;;;;;2.20;1.73;;;30.20;57.50;;;;;;7387925;19;20764;-49
2022/09/04 09:36:35;;;;;;;1.10;1.00;;;30.70;55.80;;;;;;7385904;19;20422;-49
2022/09/04 09:39:32;;;;;;;2.63;1.80;;;31.10;54.50;;;;;;7386977;19;20388;-49
2022/09/04 09:42:28;;;;;;;2.13;1.47;;;31.50;52.60;;;;;;7386201;19;20388;-49
2022/09/04 09:45:28;;;;;;;2.00;1.80;;;32.10;51.10;;;;;;7385771;19;20388;-49
2022/09/04 09:48:32;;;;;;;1.90;1.47;;;32.60;50.00;;;;;;7385800;19;20781;-49
2022/09/04 09:51:33;;;;;;;2.07;1.90;;;31.80;51.00;;;;;;7385068;19;20441;-49
2022/09/04 09:54:49;;;;;;;2.00;1.67;;;30.80;52.50;;;;;;7388743;19;20387;-49
2022/09/04 09:58:02;;;;;;;2.10;1.73;;;30.60;53.40;;;;;;7388064;19;20379;-49
2022/09/04 10:00:45;;;;;;;2.13;1.60;;;30.90;53.70;;;;;;7385053;19;21026;-49
2022/09/04 10:03:50;;;;;;;2.60;1.43;;;30.70;52.70;;;;;;7387285;19;20376;-49
2022/09/04 10:06:54;;;;;;;1.53;1.43;;;30.60;52.10;;;;;;7385368;19;20403;-49
2022/09/04 10:10:08;;;;;;;2.20;1.63;;;29.80;52.50;;;;;;7383912;19;20383;-49
2022/09/04 10:13:19;;;;;;;1.37;1.27;;;30.00;53.40;;;;;;7386092;19;20365;-49
2022/09/04 10:16:27;;;;;;;1.43;1.07;;;30.70;51.20;;;;;;7385541;19;20400;-49
2022/09/04 10:19:15;;;;;;;1.73;1.17;;;31.40;50.30;;;;;;7383669;19;20408;-49
2022/09/04 10:22:10;;;;;;;1.80;1.30;;;32.10;48.40;;;;;;7386565;19;20429;-58
2022/09/04 10:25:19;;;;;;;1.67;1.27;;;32.20;47.50;;;;;;7387132;19;20383;-58
2022/09/04 10:28:20;;;;;;;1.10;1.00;;;32.60;47.70;;;;;;7386274;19;20391;-58
2022/09/04 10:31:12;;;;;;;2.40;1.50;;;32.60;45.90;;;;;;7386262;19;20380;-59
2022/09/04 10:34:02;;;;;;;1.27;0.97;;;32.10;46.90;;;;;;7386034;19;20376;-58
2022/09/04 10:36:44;;;;;;;2.83;1.07;;;31.50;48.10;;;;;;7385212;19;20774;-58
2022/09/04 10:42:30;;;;;;;1.97;1.10;;;30.30;50.40;;;;;;7385712;19;20416;-58
2022/09/04 10:45:26;;;;;;;3.80;1.30;;;30.60;48.60;;;;;;7385453;19;20442;-59
2022/09/04 10:48:31;;;;;;;1.67;1.50;;;31.00;48.10;;;;;;7384637;19;20387;-59
2022/09/04 10:51:38;;;;;;;2.50;1.20;;;31.90;45.80;;;;;;7384322;19;20861;-58
2022/09/04 10:54:43;;;;;;;1.60;1.20;;;32.00;44.30;;;;;;7385226;19;20427;-59
2022/09/04 10:57:33;;;;;;;1.30;1.20;;;32.10;44.50;;;;;;7385251;19;20933;-58
2022/09/04 11:00:10;;;;;;;1.87;1.30;;;32.10;44.00;;;;;;7384290;19;20380;-49
2022/09/04 11:03:18;;;;;;;5.93;1.40;;;31.70;46.10;;;;;;7383516;19;20991;-48
2022/09/04 11:06:09;;;;;;;1.00;0.90;;;31.40;45.90;;;;;;7384176;19;20394;-48
2022/09/04 11:09:06;;;;;;;1.37;1.10;;;31.00;46.40;;;;;;7386168;19;20380;-48
2022/09/04 11:12:01;;;;;;;2.13;1.10;;;31.10;47.10;;;;;;7384215;19;20415;-48
2022/09/04 11:15:00;;;;;;;1.20;1.00;;;31.70;46.00;;;;;;7384457;19;20756;-48
2022/09/04 11:17:58;;;;;;;5.93;1.10;;;32.30;44.00;;;;;;7385085;19;20364;-48
2022/09/04 11:21:06;;;;;;;1.30;1.20;;;32.10;44.20;;;;;;7385163;19;20781;-48
2022/09/04 11:24:06;;;;;;;2.00;1.13;;;32.50;43.00;;;;;;7391489;19;20396;-48
2022/09/04 11:27:02;;;;;;;1.67;1.20;;;32.60;42.30;;;;;;7390645;19;20387;-48
2022/09/04 11:29:44;;;;;;;2.03;1.30;;;32.70;42.30;;;;;;7389837;19;20376;-49
2022/09/04 11:32:51;;;;;;;2.40;1.40;;;32.20;44.30;;;;;;7393294;19;20739;-49
2022/09/04 11:35:57;;;;;;;1.30;1.20;;;32.40;43.40;;;;;;7390538;19;20375;-48
2022/09/04 11:38:42;;;;;;;1.07;0.97;;;32.50;43.40;;;;;;7392328;19;20386;-48
2022/09/04 11:41:42;;;;;;;2.50;1.20;;;32.70;42.00;;;;;;7391860;19;20376;-48
2022/09/04 11:44:45;;;;;;;2.10;1.10;;;32.80;41.00;;;;;;7392150;19;20399;-49
2022/09/04 11:47:31;;;;;;;1.63;1.00;;;33.10;40.10;;;;;;7391876;19;20419;-48
2022/09/04 11:50:16;;;;;;;2.37;1.13;;;32.80;40.50;;;;;;7388453;19;20380;-49
2022/09/04 11:53:00;;;;;;;2.87;1.60;;;32.40;41.70;;;;;;7391154;19;21008;-49
2022/09/04 11:56:04;;;;;;;1.60;1.27;;;31.70;42.50;;;;;;7392845;19;20386;-48
2022/09/04 11:58:54;;;;;;;1.40;1.30;;;30.80;43.50;;;;;;7390998;19;20383;-48
2022/09/04 12:01:53;;;;;;;1.47;1.30;;;30.30;45.20;;;;;;7388225;19;20432;-58
2022/09/04 12:04:42;;;;;;;1.73;1.53;;;30.00;45.40;;;;;;7391513;19;20372;-57
2022/09/04 12:07:31;;;;;;;1.53;1.20;;;29.80;46.20;;;;;;7389567;19;20391;-58
2022/09/04 12:10:30;;;;;;;1.30;1.20;;;29.60;46.80;;;;;;7386349;19;21008;-58
2022/09/04 12:13:27;;;;;;;2.07;1.50;;;29.50;47.40;;;;;;7388738;19;20905;-57
2022/09/04 12:16:27;;;;;;;1.80;1.30;;;29.30;47.70;;;;;;7389906;19;20364;-58
2022/09/04 12:19:21;;;;;;;1.30;1.07;;;29.00;48.20;;;;;;7391053;19;20978;-58
2022/09/04 12:22:30;;;;;;;2.87;1.37;;;29.10;48.60;;;;;;7391102;19;20380;-57
2022/09/04 12:25:18;;;;;;;1.77;1.33;;;29.00;47.20;;;;;;7390244;19;20375;-57
2022/09/04 12:28:17;;;;;;;2.07;1.23;;;29.30;47.10;;;;;;7388974;19;20360;-58
2022/09/04 12:31:06;;;;;;;2.93;1.60;;;29.50;46.40;;;;;;7387415;19;20399;-58
2022/09/04 12:34:00;;;;;;;2.77;1.73;;;29.60;45.90;;;;;;7388673;19;20376;-57
2022/09/04 12:36:58;;;;;;;1.20;1.07;;;29.60;46.60;;;;;;7390237;19;21024;-58
2022/09/04 12:40:07;;;;;;;1.00;0.80;;;30.40;44.60;;;;;;7389947;19;20392;-57
2022/09/04 12:42:48;;;;;;;4.33;1.50;;;31.10;43.30;;;;;;7388613;19;21240;-58
2022/09/04 12:45:24;;;;;;;1.97;1.07;;;31.70;42.60;;;;;;7388180;19;20372;-58
2022/09/04 12:48:08;;;;;;;1.30;1.00;;;32.20;42.30;;;;;;7390642;19;20371;-58
2022/09/04 12:50:44;;;;;;;1.20;1.00;;;32.60;41.10;;;;;;7386825;19;20383;-58
2022/09/04 12:53:57;;;;;;;2.30;1.57;;;33.20;40.50;;;;;;7388602;19;20372;-58
2022/09/04 12:56:41;;;;;;;2.43;1.10;;;33.40;40.10;;;;;;7388213;19;20372;-58
2022/09/04 12:59:35;;;;;;;1.50;1.20;;;33.50;40.30;;;;;;7388218;19;21274;-58
2022/09/04 13:02:18;;;;;;;1.60;1.10;;;34.20;39.40;;;;;;7384352;19;20424;-49
2022/09/04 13:05:02;;;;;;;1.30;1.03;;;34.30;38.10;;;;;;7389029;19;20370;-49
2022/09/04 13:07:46;;;;;;;1.70;1.10;;;34.50;36.90;;;;;;7389078;19;20447;-48
2022/09/04 13:10:27;;;;;;;1.17;1.07;;;34.30;37.80;;;;;;7388001;19;20376;-48
2022/09/04 13:13:06;;;;;;;2.47;1.20;;;34.00;37.70;;;;;;7387770;19;20409;-48
2022/09/04 13:15:47;;;;;;;2.63;1.33;;;33.50;38.40;;;;;;7388512;19;20364;-48
2022/09/04 13:18:33;;;;;;;1.60;1.13;;;33.30;38.90;;;;;;7364254;19;20448;-48
2022/09/04 13:21:13;;;;;;;4.03;1.13;;;32.90;38.60;;;;;;7389128;19;20383;-48
2022/09/04 13:23:56;;;;;;;1.30;1.20;;;32.10;40.00;;;;;;7389240;19;20368;-48
2022/09/04 13:26:54;;;;;;;1.50;1.13;;;31.90;40.60;;;;;;7387854;19;20890;-48
2022/09/04 13:29:39;;;;;;;1.77;1.40;;;31.40;41.20;;;;;;7387020;19;20431;-48
2022/09/04 13:32:47;;;;;;;1.50;1.40;;;30.90;43.20;;;;;;7388941;19;20384;-58
2022/09/04 13:35:30;;;;;;;1.60;1.50;;;30.60;43.30;;;;;;7388515;19;20383;-58
2022/09/04 13:38:27;;;;;;;2.27;1.20;;;30.40;43.00;;;;;;7388902;19;20380;-58
2022/09/04 13:41:25;;;;;;;2.73;1.43;;;30.20;44.30;;;;;;7386755;19;20383;-58
2022/09/04 13:44:11;;;;;;;1.47;1.37;;;30.20;44.50;;;;;;7388302;19;20425;-58
2022/09/04 13:46:45;;;;;;;3.93;1.30;;;29.90;44.60;;;;;;7386119;19;20384;-58
2022/09/04 13:49:21;;;;;;;3.33;1.30;;;29.90;44.40;;;;;;7386133;19;20372;-57
2022/09/04 13:51:58;;;;;;;1.57;1.47;;;29.60;44.90;;;;;;7385745;19;20376;-57
2022/09/04 13:54:34;;;;;;;1.90;1.50;;;29.50;44.70;;;;;;7386017;19;20423;-57
2022/09/04 13:57:09;;;;;;;2.73;1.40;;;29.30;45.10;;;;;;7387565;19;20384;-57
2022/09/04 13:59:40;;;;;;;1.50;1.30;;;29.10;45.50;;;;;;7387154;19;20392;-57
2022/09/04 14:02:14;;;;;;;2.00;1.50;;;28.80;45.90;;;;;;7385104;19;20440;-58
2022/09/04 14:04:49;;;;;;;2.00;1.07;;;28.70;46.30;;;;;;7387160;19;20376;-58
2022/09/04 14:07:37;;;;;;;3.17;1.30;;;28.60;46.10;;;;;;7420218;19;20484;-59
2022/09/04 14:10:12;;;;;;;2.13;1.50;;;28.40;46.50;;;;;;7420166;19;20411;-58
2022/09/04 14:13:05;;;;;;;2.13;1.80;;;28.20;47.20;;;;;;7419269;19;20390;-58
2022/09/04 14:16:10;;;;;;;2.60;1.37;;;28.30;48.70;;;;;;7420964;19;20419;-58
2022/09/04 14:19:08;;;;;;;2.33;1.27;;;28.50;47.90;;;;;;7420266;19;20423;-58
2022/09/04 14:21:55;;;;;;;2.20;1.20;;;28.30;47.00;;;;;;7420302;19;20745;-57
2022/09/04 14:24:36;;;;;;;2.23;1.40;;;28.30;47.80;;;;;;7420940;19;20932;-58
2022/09/04 14:27:13;;;;;;;1.97;1.50;;;28.20;47.60;;;;;;7418792;19;20383;-58
2022/09/04 14:30:03;;;;;;;1.33;1.23;;;28.30;48.40;;;;;;7418579;19;20383;-58
2022/09/04 14:32:45;;;;;;;1.40;1.30;;;28.40;48.00;;;;;;7419475;19;20376;-57
2022/09/04 14:35:22;;;;;;;1.60;1.30;;;28.40;47.20;;;;;;7420731;19;20371;-58
2022/09/04 14:38:23;;;;;;;1.90;1.50;;;28.30;47.60;;;;;;7420927;19;20378;-58